sensor_id;sensor_type;location;lat;lon;timestamp;pressure;altitude;pressure_sealevel;temperature;humidity
55687;BME280;41911;52.362;4.978;2022-08-27T00:00:10;101837.66;;;18.19;40.59
55687;BME280;41911;52.362;4.978;2022-08-27T00:00:41;101833.36;;;18.19;40.51
55687;BME280;41911;52.362;4.978;2022-08-27T00:01:14;101835.27;;;18.16;40.43
55687;BME280;41911;52.362;4.978;2022-08-27T00:01:45;101834.99;;;18.24;40.32
55687;BME280;41911;52.362;4.978;2022-08-27T00:02:17;101835.09;;;18.23;40.59
55687;BME280;41911;52.362;4.978;2022-08-27T00:02:47;101836.92;;;18.09;40.84
55687;BME280;41911;52.362;4.978;2022-08-27T00:03:18;101838.52;;;18.45;40.52
55687;BME280;41911;52.362;4.978;2022-08-27T00:03:52;101837.38;;;18.17;40.49
55687;BME280;41911;52.362;4.978;2022-08-27T00:04:23;101836.53;;;18.08;40.41
55687;BME280;41911;52.362;4.978;2022-08-27T00:04:54;101837.98;;;18.00;40.74
55687;BME280;41911;52.362;4.978;2022-08-27T00:05:25;101839.85;;;18.07;40.61
55687;BME280;41911;52.362;4.978;2022-08-27T00:05:56;101840.06;;;18.02;40.62
55687;BME280;41911;52.362;4.978;2022-08-27T00:06:27;101841.20;;;18.46;40.45
55687;BME280;41911;52.362;4.978;2022-08-27T00:06:58;101840.42;;;17.98;40.43
55687;BME280;41911;52.362;4.978;2022-08-27T00:07:30;101841.51;;;17.53;41.20
55687;BME280;41911;52.362;4.978;2022-08-27T00:08:03;101839.47;;;18.15;40.83
55687;BME280;41911;52.362;4.978;2022-08-27T00:08:34;101837.75;;;18.00;40.54
55687;BME280;41911;52.362;4.978;2022-08-27T00:09:05;101837.54;;;18.26;40.51
55687;BME280;41911;52.362;4.978;2022-08-27T00:09:37;101838.23;;;18.35;40.50
55687;BME280;41911;52.362;4.978;2022-08-27T00:10:12;101834.54;;;17.83;40.37
55687;BME280;41911;52.362;4.978;2022-08-27T00:10:43;101834.93;;;18.24;40.56
55687;BME280;41911;52.362;4.978;2022-08-27T00:11:16;101834.16;;;18.20;40.37
55687;BME280;41911;52.362;4.978;2022-08-27T00:11:48;101834.76;;;18.28;40.29
55687;BME280;41911;52.362;4.978;2022-08-27T00:12:18;101835.23;;;18.13;40.13
55687;BME280;41911;52.362;4.978;2022-08-27T00:12:50;101833.02;;;18.67;40.14
55687;BME280;41911;52.362;4.978;2022-08-27T00:13:21;101832.56;;;18.55;40.23
55687;BME280;41911;52.362;4.978;2022-08-27T00:13:52;101834.70;;;18.18;40.54
55687;BME280;41911;52.362;4.978;2022-08-27T00:14:24;101834.41;;;18.36;40.32
55687;BME280;41911;52.362;4.978;2022-08-27T00:14:55;101833.44;;;18.31;40.26
55687;BME280;41911;52.362;4.978;2022-08-27T00:15:27;101833.96;;;17.88;40.37
55687;BME280;41911;52.362;4.978;2022-08-27T00:15:59;101832.38;;;18.32;40.31
55687;BME280;41911;52.362;4.978;2022-08-27T00:16:30;101832.18;;;18.57;40.16
55687;BME280;41911;52.362;4.978;2022-08-27T00:17:02;101833.50;;;18.29;40.16
55687;BME280;41911;52.362;4.978;2022-08-27T00:17:34;101829.79;;;18.05;40.31
55687;BME280;41911;52.362;4.978;2022-08-27T00:18:05;101829.43;;;18.03;40.14
55687;BME280;41911;52.362;4.978;2022-08-27T00:18:37;101834.29;;;17.65;40.62
55687;BME280;41911;52.362;4.978;2022-08-27T00:19:09;101831.13;;;17.76;40.47
55687;BME280;41911;52.362;4.978;2022-08-27T00:19:41;101830.54;;;17.92;40.23
55687;BME280;41911;52.362;4.978;2022-08-27T00:20:15;101826.08;;;18.09;39.94
55687;BME280;41911;52.362;4.978;2022-08-27T00:20:47;101828.19;;;18.55;40.10
55687;BME280;41911;52.362;4.978;2022-08-27T00:21:18;101826.90;;;18.55;40.15
55687;BME280;41911;52.362;4.978;2022-08-27T00:21:49;101829.73;;;18.12;40.14
55687;BME280;41911;52.362;4.978;2022-08-27T00:22:21;101825.17;;;18.37;40.23
55687;BME280;41911;52.362;4.978;2022-08-27T00:22:52;101824.79;;;18.45;40.29
55687;BME280;41911;52.362;4.978;2022-08-27T00:23:23;101827.83;;;18.29;40.36
55687;BME280;41911;52.362;4.978;2022-08-27T00:23:54;101824.78;;;17.80;40.23
55687;BME280;41911;52.362;4.978;2022-08-27T00:24:25;101823.81;;;18.25;40.34
55687;BME280;41911;52.362;4.978;2022-08-27T00:24:56;101822.96;;;18.33;40.23
55687;BME280;41911;52.362;4.978;2022-08-27T00:25:27;101822.28;;;18.15;40.53
55687;BME280;41911;52.362;4.978;2022-08-27T00:25:58;101818.78;;;18.38;40.25
55687;BME280;41911;52.362;4.978;2022-08-27T00:26:29;101821.32;;;18.24;40.47
55687;BME280;41911;52.362;4.978;2022-08-27T00:27:00;101819.92;;;18.29;40.43
55687;BME280;41911;52.362;4.978;2022-08-27T00:27:31;101820.44;;;18.34;40.42
55687;BME280;41911;52.362;4.978;2022-08-27T00:28:02;101819.87;;;18.33;40.40
55687;BME280;41911;52.362;4.978;2022-08-27T00:28:34;101822.71;;;17.71;40.68
55687;BME280;41911;52.362;4.978;2022-08-27T00:29:06;101817.80;;;18.22;40.59
55687;BME280;41911;52.362;4.978;2022-08-27T00:29:37;101817.25;;;18.39;40.30
55687;BME280;41911;52.362;4.978;2022-08-27T00:30:12;101819.58;;;17.95;40.33
55687;BME280;41911;52.362;4.978;2022-08-27T00:30:43;101817.86;;;17.51;40.85
55687;BME280;41911;52.362;4.978;2022-08-27T00:31:15;101818.71;;;17.93;40.79
55687;BME280;41911;52.362;4.978;2022-08-27T00:31:46;101818.55;;;17.74;40.65
55687;BME280;41911;52.362;4.978;2022-08-27T00:32:17;101815.08;;;18.28;40.40
55687;BME280;41911;52.362;4.978;2022-08-27T00:32:48;101813.75;;;18.35;40.35
55687;BME280;41911;52.362;4.978;2022-08-27T00:33:19;101814.25;;;17.49;40.73
55687;BME280;41911;52.362;4.978;2022-08-27T00:33:50;101812.12;;;18.09;40.71
55687;BME280;41911;52.362;4.978;2022-08-27T00:34:22;101815.28;;;18.07;40.55
55687;BME280;41911;52.362;4.978;2022-08-27T00:34:53;101815.48;;;17.94;40.77
55687;BME280;41911;52.362;4.978;2022-08-27T00:35:24;101812.68;;;17.90;40.54
55687;BME280;41911;52.362;4.978;2022-08-27T00:35:55;101812.92;;;18.22;40.62
55687;BME280;41911;52.362;4.978;2022-08-27T00:36:27;101813.11;;;18.32;40.42
55687;BME280;41911;52.362;4.978;2022-08-27T00:36:58;101812.82;;;17.90;40.41
55687;BME280;41911;52.362;4.978;2022-08-27T00:37:29;101813.66;;;18.15;40.51
55687;BME280;41911;52.362;4.978;2022-08-27T00:38:00;101812.57;;;17.94;40.44
55687;BME280;41911;52.362;4.978;2022-08-27T00:38:31;101811.46;;;18.21;40.50
55687;BME280;41911;52.362;4.978;2022-08-27T00:39:02;101811.94;;;18.24;40.47
55687;BME280;41911;52.362;4.978;2022-08-27T00:39:34;101813.45;;;17.77;40.67
55687;BME280;41911;52.362;4.978;2022-08-27T00:40:09;101812.17;;;18.03;40.66
55687;BME280;41911;52.362;4.978;2022-08-27T00:40:40;101812.40;;;17.99;40.78
55687;BME280;41911;52.362;4.978;2022-08-27T00:41:12;101813.76;;;18.14;40.64
55687;BME280;41911;52.362;4.978;2022-08-27T00:41:43;101811.84;;;18.24;40.53
55687;BME280;41911;52.362;4.978;2022-08-27T00:42:14;101809.32;;;18.36;40.36
55687;BME280;41911;52.362;4.978;2022-08-27T00:42:45;101809.56;;;18.09;40.35
55687;BME280;41911;52.362;4.978;2022-08-27T00:43:20;101811.75;;;18.40;40.35
55687;BME280;41911;52.362;4.978;2022-08-27T00:43:53;101812.28;;;18.51;40.25
55687;BME280;41911;52.362;4.978;2022-08-27T00:44:25;101811.61;;;17.80;40.25
55687;BME280;41911;52.362;4.978;2022-08-27T00:44:56;101810.78;;;18.23;40.39
55687;BME280;41911;52.362;4.978;2022-08-27T00:45:29;101809.22;;;17.97;40.45
55687;BME280;41911;52.362;4.978;2022-08-27T00:46:06;101810.59;;;18.12;40.29
55687;BME280;41911;52.362;4.978;2022-08-27T00:46:42;101811.40;;;18.04;40.33
55687;BME280;41911;52.362;4.978;2022-08-27T00:47:17;101809.35;;;18.44;40.27
55687;BME280;41911;52.362;4.978;2022-08-27T00:47:54;101809.67;;;18.23;40.26
55687;BME280;41911;52.362;4.978;2022-08-27T00:48:28;101809.77;;;18.52;40.26
55687;BME280;41911;52.362;4.978;2022-08-27T00:49:05;101808.73;;;18.11;40.12
55687;BME280;41911;52.362;4.978;2022-08-27T00:49:40;101809.98;;;18.31;40.11
55687;BME280;41911;52.362;4.978;2022-08-27T00:50:13;101809.67;;;18.04;40.15
55687;BME280;41911;52.362;4.978;2022-08-27T00:50:52;101811.42;;;18.26;40.16
55687;BME280;41911;52.362;4.978;2022-08-27T00:51:24;101809.24;;;18.37;39.95
55687;BME280;41911;52.362;4.978;2022-08-27T00:51:59;101813.27;;;17.89;40.17
55687;BME280;41911;52.362;4.978;2022-08-27T00:52:34;101812.74;;;18.26;40.11
55687;BME280;41911;52.362;4.978;2022-08-27T00:53:09;101809.76;;;18.74;40.02
55687;BME280;41911;52.362;4.978;2022-08-27T00:53:41;101810.12;;;17.97;40.12
55687;BME280;41911;52.362;4.978;2022-08-27T00:54:12;101813.98;;;17.76;40.43
55687;BME280;41911;52.362;4.978;2022-08-27T00:54:44;101815.39;;;17.76;40.40
55687;BME280;41911;52.362;4.978;2022-08-27T00:55:17;101813.86;;;18.13;40.25
55687;BME280;41911;52.362;4.978;2022-08-27T00:55:53;101811.76;;;17.90;40.16
55687;BME280;41911;52.362;4.978;2022-08-27T00:56:27;101816.06;;;18.18;40.24
55687;BME280;41911;52.362;4.978;2022-08-27T00:57:00;101811.89;;;18.11;40.07
55687;BME280;41911;52.362;4.978;2022-08-27T00:57:33;101814.60;;;18.08;40.09
55687;BME280;41911;52.362;4.978;2022-08-27T00:58:10;101816.27;;;17.97;40.16
55687;BME280;41911;52.362;4.978;2022-08-27T00:58:46;101819.54;;;18.08;40.69
55687;BME280;41911;52.362;4.978;2022-08-27T00:59:21;101816.60;;;18.12;40.42
55687;BME280;41911;52.362;4.978;2022-08-27T00:59:53;101817.49;;;18.01;40.33
55687;BME280;41911;52.362;4.978;2022-08-27T01:00:25;101818.11;;;18.27;40.22
55687;BME280;41911;52.362;4.978;2022-08-27T01:00:56;101820.26;;;18.17;40.73
55687;BME280;41911;52.362;4.978;2022-08-27T01:01:30;101819.88;;;18.00;40.61
55687;BME280;41911;52.362;4.978;2022-08-27T01:02:02;101815.60;;;17.92;40.28
55687;BME280;41911;52.362;4.978;2022-08-27T01:02:33;101817.20;;;17.78;40.40
55687;BME280;41911;52.362;4.978;2022-08-27T01:03:05;101815.79;;;17.80;40.45
55687;BME280;41911;52.362;4.978;2022-08-27T01:03:37;101817.09;;;17.90;40.22
55687;BME280;41911;52.362;4.978;2022-08-27T01:04:08;101812.92;;;18.00;40.14
55687;BME280;41911;52.362;4.978;2022-08-27T01:04:41;101813.35;;;18.13;40.08
55687;BME280;41911;52.362;4.978;2022-08-27T01:05:16;101815.03;;;18.06;40.08
55687;BME280;41911;52.362;4.978;2022-08-27T01:05:49;101817.82;;;18.27;40.21
55687;BME280;41911;52.362;4.978;2022-08-27T01:06:21;101817.74;;;17.88;40.24
55687;BME280;41911;52.362;4.978;2022-08-27T01:06:53;101817.87;;;18.19;40.22
55687;BME280;41911;52.362;4.978;2022-08-27T01:07:25;101819.50;;;18.60;40.21
55687;BME280;41911;52.362;4.978;2022-08-27T01:08:03;101819.80;;;18.05;40.06
55687;BME280;41911;52.362;4.978;2022-08-27T01:08:39;101820.35;;;18.21;40.05
55687;BME280;41911;52.362;4.978;2022-08-27T01:09:14;101821.42;;;18.13;40.33
55687;BME280;41911;52.362;4.978;2022-08-27T01:09:47;101819.47;;;18.26;40.27
55687;BME280;41911;52.362;4.978;2022-08-27T01:10:21;101821.42;;;18.27;40.26
55687;BME280;41911;52.362;4.978;2022-08-27T01:10:54;101821.51;;;18.46;40.46
55687;BME280;41911;52.362;4.978;2022-08-27T01:11:26;101820.37;;;18.34;40.59
55687;BME280;41911;52.362;4.978;2022-08-27T01:11:58;101821.44;;;18.10;40.59
55687;BME280;41911;52.362;4.978;2022-08-27T01:12:31;101821.82;;;18.47;40.52
55687;BME280;41911;52.362;4.978;2022-08-27T01:13:02;101820.89;;;18.15;40.47
55687;BME280;41911;52.362;4.978;2022-08-27T01:13:35;101818.97;;;18.23;40.33
55687;BME280;41911;52.362;4.978;2022-08-27T01:14:07;101820.05;;;18.24;40.44
55687;BME280;41911;52.362;4.978;2022-08-27T01:14:39;101824.75;;;17.53;40.85
55687;BME280;41911;52.362;4.978;2022-08-27T01:15:14;101821.96;;;18.31;40.83
55687;BME280;41911;52.362;4.978;2022-08-27T01:15:46;101825.21;;;17.66;41.46
55687;BME280;41911;52.362;4.978;2022-08-27T01:16:21;101823.40;;;17.74;41.18
55687;BME280;41911;52.362;4.978;2022-08-27T01:16:54;101827.61;;;17.32;41.78
55687;BME280;41911;52.362;4.978;2022-08-27T01:17:25;101824.23;;;17.99;41.43
55687;BME280;41911;52.362;4.978;2022-08-27T01:17:57;101825.97;;;18.01;41.30
55687;BME280;41911;52.362;4.978;2022-08-27T01:18:32;101826.80;;;18.18;41.16
55687;BME280;41911;52.362;4.978;2022-08-27T01:19:13;101825.80;;;18.26;41.04
55687;BME280;41911;52.362;4.978;2022-08-27T01:19:50;101826.42;;;17.99;40.99
55687;BME280;41911;52.362;4.978;2022-08-27T01:20:24;101825.09;;;18.19;41.00
55687;BME280;41911;52.362;4.978;2022-08-27T01:21:01;101827.15;;;18.23;40.97
55687;BME280;41911;52.362;4.978;2022-08-27T01:21:43;101823.51;;;18.38;40.94
55687;BME280;41911;52.362;4.978;2022-08-27T01:22:25;101822.83;;;18.47;40.82
55687;BME280;41911;52.362;4.978;2022-08-27T01:23:05;101825.01;;;18.48;40.84
55687;BME280;41911;52.362;4.978;2022-08-27T01:23:43;101827.03;;;17.93;41.06
55687;BME280;41911;52.362;4.978;2022-08-27T01:24:30;101825.15;;;17.71;40.95
55687;BME280;41911;52.362;4.978;2022-08-27T01:25:07;101823.64;;;17.66;41.08
55687;BME280;41911;52.362;4.978;2022-08-27T01:25:40;101822.83;;;17.85;41.01
55687;BME280;41911;52.362;4.978;2022-08-27T01:26:13;101820.05;;;18.55;40.80
55687;BME280;41911;52.362;4.978;2022-08-27T01:26:45;101820.57;;;17.87;40.89
55687;BME280;41911;52.362;4.978;2022-08-27T01:27:18;101820.70;;;18.35;40.97
55687;BME280;41911;52.362;4.978;2022-08-27T01:27:55;101821.84;;;17.64;41.06
55687;BME280;41911;52.362;4.978;2022-08-27T01:28:30;101821.67;;;18.16;40.92
55687;BME280;41911;52.362;4.978;2022-08-27T01:29:02;101822.14;;;18.11;41.24
55687;BME280;41911;52.362;4.978;2022-08-27T01:29:34;101823.30;;;17.73;41.31
55687;BME280;41911;52.362;4.978;2022-08-27T01:30:09;101822.34;;;18.13;41.24
55687;BME280;41911;52.362;4.978;2022-08-27T01:30:41;101824.32;;;18.02;41.10
55687;BME280;41911;52.362;4.978;2022-08-27T01:31:13;101823.90;;;18.23;41.14
55687;BME280;41911;52.362;4.978;2022-08-27T01:31:45;101823.26;;;17.59;41.17
55687;BME280;41911;52.362;4.978;2022-08-27T01:32:20;101820.78;;;18.39;40.88
55687;BME280;41911;52.362;4.978;2022-08-27T01:32:51;101820.32;;;18.08;40.88
55687;BME280;41911;52.362;4.978;2022-08-27T01:33:22;101821.88;;;18.30;40.94
55687;BME280;41911;52.362;4.978;2022-08-27T01:33:55;101821.13;;;17.81;40.98
55687;BME280;41911;52.362;4.978;2022-08-27T01:34:27;101821.92;;;18.42;40.92
55687;BME280;41911;52.362;4.978;2022-08-27T01:34:58;101820.65;;;18.28;40.78
55687;BME280;41911;52.362;4.978;2022-08-27T01:35:30;101822.00;;;18.60;40.68
55687;BME280;41911;52.362;4.978;2022-08-27T01:36:01;101825.27;;;17.82;40.79
55687;BME280;41911;52.362;4.978;2022-08-27T01:36:33;101824.70;;;18.38;40.84
55687;BME280;41911;52.362;4.978;2022-08-27T01:37:06;101823.41;;;17.99;40.88
55687;BME280;41911;52.362;4.978;2022-08-27T01:37:38;101825.56;;;18.22;41.04
55687;BME280;41911;52.362;4.978;2022-08-27T01:38:10;101826.60;;;17.83;41.09
55687;BME280;41911;52.362;4.978;2022-08-27T01:38:41;101825.37;;;18.07;41.18
55687;BME280;41911;52.362;4.978;2022-08-27T01:39:12;101826.17;;;18.35;40.97
55687;BME280;41911;52.362;4.978;2022-08-27T01:39:43;101827.13;;;17.39;41.25
55687;BME280;41911;52.362;4.978;2022-08-27T01:40:16;101827.42;;;17.88;41.02
55687;BME280;41911;52.362;4.978;2022-08-27T01:40:47;101827.00;;;18.06;40.88
55687;BME280;41911;52.362;4.978;2022-08-27T01:41:20;101824.30;;;18.46;40.85
55687;BME280;41911;52.362;4.978;2022-08-27T01:41:51;101824.06;;;18.34;40.91
55687;BME280;41911;52.362;4.978;2022-08-27T01:42:24;101823.29;;;18.36;40.94
55687;BME280;41911;52.362;4.978;2022-08-27T01:42:59;101823.33;;;18.44;40.94
55687;BME280;41911;52.362;4.978;2022-08-27T01:43:31;101823.16;;;18.14;41.02
55687;BME280;41911;52.362;4.978;2022-08-27T01:44:02;101825.45;;;17.94;41.22
55687;BME280;41911;52.362;4.978;2022-08-27T01:44:43;101823.48;;;18.05;41.25
55687;BME280;41911;52.362;4.978;2022-08-27T01:45:17;101822.71;;;18.25;41.32
55687;BME280;41911;52.362;4.978;2022-08-27T01:45:51;101821.64;;;18.20;41.38
55687;BME280;41911;52.362;4.978;2022-08-27T01:46:24;101822.88;;;18.09;41.70
55687;BME280;41911;52.362;4.978;2022-08-27T01:46:55;101823.75;;;17.47;41.50
55687;BME280;41911;52.362;4.978;2022-08-27T01:47:28;101822.29;;;17.92;41.57
55687;BME280;41911;52.362;4.978;2022-08-27T01:48:00;101824.30;;;17.65;41.53
55687;BME280;41911;52.362;4.978;2022-08-27T01:48:31;101821.63;;;18.35;41.51
55687;BME280;41911;52.362;4.978;2022-08-27T01:49:02;101823.08;;;18.20;41.70
55687;BME280;41911;52.362;4.978;2022-08-27T01:49:33;101824.10;;;17.85;41.76
55687;BME280;41911;52.362;4.978;2022-08-27T01:50:07;101824.35;;;17.79;41.90
55687;BME280;41911;52.362;4.978;2022-08-27T01:50:40;101824.07;;;17.96;42.11
55687;BME280;41911;52.362;4.978;2022-08-27T01:51:11;101822.70;;;17.84;42.17
55687;BME280;41911;52.362;4.978;2022-08-27T01:51:42;101822.74;;;17.64;42.56
55687;BME280;41911;52.362;4.978;2022-08-27T01:52:15;101823.03;;;17.17;42.76
55687;BME280;41911;52.362;4.978;2022-08-27T01:52:46;101822.98;;;17.77;42.44
55687;BME280;41911;52.362;4.978;2022-08-27T01:53:20;101820.93;;;17.78;42.48
55687;BME280;41911;52.362;4.978;2022-08-27T01:53:52;101820.04;;;17.81;42.41
55687;BME280;41911;52.362;4.978;2022-08-27T01:54:23;101820.26;;;17.96;42.28
55687;BME280;41911;52.362;4.978;2022-08-27T01:54:54;101821.49;;;17.93;42.23
55687;BME280;41911;52.362;4.978;2022-08-27T01:55:25;101819.96;;;18.10;42.11
55687;BME280;41911;52.362;4.978;2022-08-27T01:55:57;101821.19;;;18.06;42.08
55687;BME280;41911;52.362;4.978;2022-08-27T01:56:28;101819.61;;;18.17;41.98
55687;BME280;41911;52.362;4.978;2022-08-27T01:57:00;101817.37;;;18.21;41.96
55687;BME280;41911;52.362;4.978;2022-08-27T01:57:31;101816.78;;;17.83;42.05
55687;BME280;41911;52.362;4.978;2022-08-27T01:58:02;101821.25;;;18.15;42.02
55687;BME280;41911;52.362;4.978;2022-08-27T01:58:34;101818.51;;;17.88;41.94
55687;BME280;41911;52.362;4.978;2022-08-27T01:59:05;101820.04;;;17.90;41.94
55687;BME280;41911;52.362;4.978;2022-08-27T01:59:36;101817.70;;;17.91;41.88
55687;BME280;41911;52.362;4.978;2022-08-27T02:00:12;101819.90;;;18.17;41.90
55687;BME280;41911;52.362;4.978;2022-08-27T02:00:46;101818.92;;;18.11;41.93
55687;BME280;41911;52.362;4.978;2022-08-27T02:01:18;101818.73;;;17.91;41.89
55687;BME280;41911;52.362;4.978;2022-08-27T02:01:49;101820.28;;;18.13;41.84
55687;BME280;41911;52.362;4.978;2022-08-27T02:02:21;101817.46;;;17.54;41.89
55687;BME280;41911;52.362;4.978;2022-08-27T02:02:53;101819.64;;;18.13;41.82
55687;BME280;41911;52.362;4.978;2022-08-27T02:03:24;101818.67;;;18.33;41.66
55687;BME280;41911;52.362;4.978;2022-08-27T02:03:55;101817.04;;;18.09;41.56
55687;BME280;41911;52.362;4.978;2022-08-27T02:04:26;101819.02;;;18.20;41.60
55687;BME280;41911;52.362;4.978;2022-08-27T02:04:57;101817.48;;;17.91;41.68
55687;BME280;41911;52.362;4.978;2022-08-27T02:05:28;101818.27;;;18.06;41.78
55687;BME280;41911;52.362;4.978;2022-08-27T02:06:04;101820.26;;;17.80;41.89
55687;BME280;41911;52.362;4.978;2022-08-27T02:07:16;101819.94;;;17.89;41.70
55687;BME280;41911;52.362;4.978;2022-08-27T02:07:47;101819.94;;;17.95;41.70
55687;BME280;41911;52.362;4.978;2022-08-27T02:08:19;101821.55;;;17.75;41.58
55687;BME280;41911;52.362;4.978;2022-08-27T02:08:50;101817.83;;;18.39;41.38
55687;BME280;41911;52.362;4.978;2022-08-27T02:09:21;101818.41;;;18.43;41.35
55687;BME280;41911;52.362;4.978;2022-08-27T02:09:52;101818.15;;;17.89;41.26
55687;BME280;41911;52.362;4.978;2022-08-27T02:10:27;101819.96;;;17.91;41.63
55687;BME280;41911;52.362;4.978;2022-08-27T02:10:59;101815.16;;;17.96;41.42
55687;BME280;41911;52.362;4.978;2022-08-27T02:11:30;101816.28;;;17.84;41.32
55687;BME280;41911;52.362;4.978;2022-08-27T02:12:01;101815.74;;;18.40;41.24
55687;BME280;41911;52.362;4.978;2022-08-27T02:12:32;101816.89;;;17.79;41.21
55687;BME280;41911;52.362;4.978;2022-08-27T02:13:04;101814.49;;;17.80;41.32
55687;BME280;41911;52.362;4.978;2022-08-27T02:13:35;101815.29;;;17.72;41.41
55687;BME280;41911;52.362;4.978;2022-08-27T02:14:06;101817.18;;;17.90;41.49
55687;BME280;41911;52.362;4.978;2022-08-27T02:14:37;101815.50;;;17.91;41.52
55687;BME280;41911;52.362;4.978;2022-08-27T02:15:09;101812.74;;;18.11;41.56
55687;BME280;41911;52.362;4.978;2022-08-27T02:15:41;101814.36;;;18.16;41.59
55687;BME280;41911;52.362;4.978;2022-08-27T02:16:12;101810.92;;;18.29;41.43
55687;BME280;41911;52.362;4.978;2022-08-27T02:16:43;101810.87;;;17.84;41.35
55687;BME280;41911;52.362;4.978;2022-08-27T02:17:14;101811.46;;;18.42;41.24
55687;BME280;41911;52.362;4.978;2022-08-27T02:17:46;101810.25;;;17.81;41.07
55687;BME280;41911;52.362;4.978;2022-08-27T02:18:17;101810.04;;;17.98;41.06
55687;BME280;41911;52.362;4.978;2022-08-27T02:18:48;101812.55;;;18.02;41.50
55687;BME280;41911;52.362;4.978;2022-08-27T02:19:20;101807.97;;;18.23;41.40
55687;BME280;41911;52.362;4.978;2022-08-27T02:19:51;101810.00;;;18.34;41.27
55687;BME280;41911;52.362;4.978;2022-08-27T02:20:22;101808.41;;;18.12;41.27
55687;BME280;41911;52.362;4.978;2022-08-27T02:20:53;101808.38;;;18.30;41.34
55687;BME280;41911;52.362;4.978;2022-08-27T02:21:24;101810.54;;;18.01;41.30
55687;BME280;41911;52.362;4.978;2022-08-27T02:21:55;101808.80;;;18.38;41.34
55687;BME280;41911;52.362;4.978;2022-08-27T02:22:26;101808.54;;;17.79;41.34
55687;BME280;41911;52.362;4.978;2022-08-27T02:22:57;101811.12;;;17.76;41.48
55687;BME280;41911;52.362;4.978;2022-08-27T02:23:28;101810.43;;;17.35;41.77
55687;BME280;41911;52.362;4.978;2022-08-27T02:23:59;101807.15;;;18.22;41.39
55687;BME280;41911;52.362;4.978;2022-08-27T02:24:30;101812.18;;;18.15;41.52
55687;BME280;41911;52.362;4.978;2022-08-27T02:25:02;101806.88;;;18.23;41.34
55687;BME280;41911;52.362;4.978;2022-08-27T02:25:34;101807.43;;;18.13;41.35
55687;BME280;41911;52.362;4.978;2022-08-27T02:26:05;101805.20;;;18.30;41.33
55687;BME280;41911;52.362;4.978;2022-08-27T02:26:36;101806.72;;;17.94;41.43
55687;BME280;41911;52.362;4.978;2022-08-27T02:27:07;101808.94;;;18.25;41.41
55687;BME280;41911;52.362;4.978;2022-08-27T02:27:39;101807.50;;;17.73;41.31
55687;BME280;41911;52.362;4.978;2022-08-27T02:28:10;101807.32;;;18.21;41.26
55687;BME280;41911;52.362;4.978;2022-08-27T02:28:41;101806.54;;;18.01;41.31
55687;BME280;41911;52.362;4.978;2022-08-27T02:29:12;101807.33;;;18.07;41.49
55687;BME280;41911;52.362;4.978;2022-08-27T02:29:43;101805.30;;;18.15;41.42
55687;BME280;41911;52.362;4.978;2022-08-27T02:30:17;101806.87;;;17.89;41.49
55687;BME280;41911;52.362;4.978;2022-08-27T02:30:48;101807.95;;;18.15;41.52
55687;BME280;41911;52.362;4.978;2022-08-27T02:31:19;101808.78;;;17.79;41.63
55687;BME280;41911;52.362;4.978;2022-08-27T02:31:51;101808.63;;;18.12;41.58
55687;BME280;41911;52.362;4.978;2022-08-27T02:32:22;101807.60;;;18.14;41.54
55687;BME280;41911;52.362;4.978;2022-08-27T02:32:53;101807.41;;;18.11;41.64
55687;BME280;41911;52.362;4.978;2022-08-27T02:33:24;101806.76;;;17.74;41.54
55687;BME280;41911;52.362;4.978;2022-08-27T02:33:55;101804.29;;;18.10;41.47
55687;BME280;41911;52.362;4.978;2022-08-27T02:34:26;101805.05;;;17.80;41.39
55687;BME280;41911;52.362;4.978;2022-08-27T02:34:58;101802.38;;;17.98;41.31
55687;BME280;41911;52.362;4.978;2022-08-27T02:35:30;101804.54;;;17.79;41.37
55687;BME280;41911;52.362;4.978;2022-08-27T02:36:02;101802.70;;;18.14;41.37
55687;BME280;41911;52.362;4.978;2022-08-27T02:36:33;101804.80;;;17.50;41.53
55687;BME280;41911;52.362;4.978;2022-08-27T02:37:04;101802.12;;;18.16;41.34
55687;BME280;41911;52.362;4.978;2022-08-27T02:37:35;101803.24;;;17.97;41.35
55687;BME280;41911;52.362;4.978;2022-08-27T02:38:07;101801.97;;;18.31;41.19
55687;BME280;41911;52.362;4.978;2022-08-27T02:38:38;101804.39;;;18.33;41.30
55687;BME280;41911;52.362;4.978;2022-08-27T02:39:09;101801.83;;;18.34;41.24
55687;BME280;41911;52.362;4.978;2022-08-27T02:39:40;101804.50;;;17.51;41.78
55687;BME280;41911;52.362;4.978;2022-08-27T02:40:13;101804.75;;;17.76;41.74
55687;BME280;41911;52.362;4.978;2022-08-27T02:40:44;101802.36;;;17.49;41.53
55687;BME280;41911;52.362;4.978;2022-08-27T02:41:15;101802.13;;;17.96;41.38
55687;BME280;41911;52.362;4.978;2022-08-27T02:41:47;101801.25;;;18.35;41.28
55687;BME280;41911;52.362;4.978;2022-08-27T02:42:18;101800.69;;;18.44;41.24
55687;BME280;41911;52.362;4.978;2022-08-27T02:42:49;101800.11;;;18.16;41.19
55687;BME280;41911;52.362;4.978;2022-08-27T02:43:20;101801.89;;;17.81;41.28
55687;BME280;41911;52.362;4.978;2022-08-27T02:43:51;101799.46;;;17.67;41.39
55687;BME280;41911;52.362;4.978;2022-08-27T02:44:22;101801.49;;;18.22;41.40
55687;BME280;41911;52.362;4.978;2022-08-27T02:44:53;101803.10;;;18.38;41.35
55687;BME280;41911;52.362;4.978;2022-08-27T02:45:24;101801.06;;;17.94;41.19
55687;BME280;41911;52.362;4.978;2022-08-27T02:45:55;101801.02;;;18.10;41.16
55687;BME280;41911;52.362;4.978;2022-08-27T02:46:26;101800.85;;;17.88;40.98
55687;BME280;41911;52.362;4.978;2022-08-27T02:46:57;101803.01;;;18.47;40.99
55687;BME280;41911;52.362;4.978;2022-08-27T02:47:28;101803.56;;;18.47;41.07
55687;BME280;41911;52.362;4.978;2022-08-27T02:47:59;101803.19;;;17.76;41.10
55687;BME280;41911;52.362;4.978;2022-08-27T02:48:30;101802.20;;;17.86;41.09
55687;BME280;41911;52.362;4.978;2022-08-27T02:49:01;101802.26;;;18.51;41.02
55687;BME280;41911;52.362;4.978;2022-08-27T02:49:32;101803.04;;;17.85;40.96